Time;durP1;ratioP1;P1;durP2;ratioP2;P2;SDS_P1;SDS_P2;PMS_P1;PMS_P2;Temp;Humidity;BMP_temperature;BMP_pressure;BME280_temperature;BME280_humidity;BME280_pressure;Samples;Min_cycle;Max_cycle;Signal;HPM_P1;HPM_P2
2021/06/28 00:00:20;;;;;;;8.20;7.50;;;20.70;99.90;;;;;;2089116;28;20029;-69
2021/06/28 00:01:21;;;;;;;8.25;7.55;;;20.70;99.90;;;;;;2089821;28;20498;-69
2021/06/28 00:02:22;;;;;;;9.50;7.93;;;20.70;99.90;;;;;;2089234;28;20399;-69
2021/06/28 00:03:22;;;;;;;8.30;7.68;;;20.70;99.90;;;;;;2089505;28;20025;-69
2021/06/28 00:04:23;;;;;;;8.93;8.18;;;20.80;99.90;;;;;;2089725;28;20519;-69
2021/06/28 00:05:24;;;;;;;8.57;7.88;;;20.80;99.90;;;;;;2089691;28;20120;-69
2021/06/28 00:06:25;;;;;;;9.10;8.30;;;20.80;99.90;;;;;;2089556;28;20136;-69
2021/06/28 00:07:26;;;;;;;9.38;8.50;;;20.80;99.90;;;;;;2089569;28;20021;-69
2021/06/28 00:08:27;;;;;;;8.98;8.05;;;20.70;99.90;;;;;;2089370;28;20090;-69
2021/06/28 00:09:27;;;;;;;12.23;7.93;;;20.80;99.90;;;;;;2089914;28;20021;-69
2021/06/28 00:10:31;;;;;;;9.00;8.15;;;20.70;99.90;;;;;;2089590;28;20510;-69
2021/06/28 00:11:31;;;;;;;9.77;8.85;;;20.80;99.90;;;;;;2088926;28;20033;-69
2021/06/28 00:12:32;;;;;;;8.35;7.68;;;20.70;99.90;;;;;;2089686;28;20472;-69
2021/06/28 00:13:38;;;;;;;8.18;7.47;;;20.80;99.90;;;;;;2089347;28;20025;-69
2021/06/28 00:14:39;;;;;;;9.18;8.38;;;20.80;99.90;;;;;;2089210;28;20021;-69
2021/06/28 00:15:39;;;;;;;8.45;7.65;;;20.80;99.90;;;;;;2089795;28;20083;-69
2021/06/28 00:16:40;;;;;;;8.70;7.93;;;20.70;99.90;;;;;;2092716;28;20017;-69
2021/06/28 00:17:41;;;;;;;8.48;7.68;;;20.80;99.90;;;;;;2097972;28;20353;-69
2021/06/28 00:18:42;;;;;;;9.20;8.40;;;20.70;99.90;;;;;;2097388;28;20028;-69
2021/06/28 00:19:43;;;;;;;8.70;8.00;;;20.70;99.90;;;;;;2097912;28;20060;-69
2021/06/28 00:20:44;;;;;;;8.70;7.82;;;20.70;99.90;;;;;;2097867;28;20024;-69
2021/06/28 00:21:44;;;;;;;10.70;7.68;;;20.70;99.90;;;;;;2097322;28;20036;-69
2021/06/28 00:22:46;;;;;;;8.07;7.38;;;20.70;99.90;;;;;;2097689;28;20020;-69
2021/06/28 00:23:47;;;;;;;9.80;8.05;;;20.70;99.90;;;;;;2097778;28;20032;-69
2021/06/28 00:24:47;;;;;;;8.27;7.50;;;20.70;99.90;;;;;;2097697;28;20027;-69
2021/06/28 00:25:48;;;;;;;8.30;7.30;;;20.70;99.90;;;;;;2097883;28;20024;-69
2021/06/28 00:26:48;;;;;;;8.88;8.07;;;20.70;99.90;;;;;;2097635;28;20021;-69
2021/06/28 00:27:52;;;;;;;9.32;7.75;;;20.70;99.90;;;;;;2097693;28;20021;-69
2021/06/28 00:28:52;;;;;;;10.98;8.77;;;20.60;99.90;;;;;;2097688;28;20025;-69
2021/06/28 00:29:53;;;;;;;7.97;7.28;;;20.70;99.90;;;;;;2097615;28;20024;-69
2021/06/28 00:30:55;;;;;;;7.47;6.80;;;20.70;99.90;;;;;;2097804;28;20039;-69
2021/06/28 00:31:56;;;;;;;8.98;8.18;;;20.60;99.90;;;;;;2097328;28;20024;-69
2021/06/28 00:32:57;;;;;;;8.48;7.70;;;20.70;99.90;;;;;;2097509;28;20024;-69
2021/06/28 00:33:58;;;;;;;9.43;8.48;;;20.70;99.90;;;;;;2097914;28;20121;-69
2021/06/28 00:34:59;;;;;;;10.18;8.45;;;20.70;99.90;;;;;;2097551;28;20027;-69
2021/06/28 00:36:00;;;;;;;9.18;8.38;;;20.70;99.90;;;;;;2102167;28;20067;-69
2021/06/28 00:37:02;;;;;;;10.13;8.90;;;20.70;99.90;;;;;;2097001;28;20073;-69
2021/06/28 00:38:03;;;;;;;8.93;8.23;;;20.70;99.90;;;;;;2089654;28;20025;-69
2021/06/28 00:39:04;;;;;;;8.70;8.00;;;20.70;99.90;;;;;;2089500;28;20029;-69
2021/06/28 00:40:07;;;;;;;9.90;8.95;;;20.70;99.90;;;;;;2089412;28;20484;-69
2021/06/28 00:41:08;;;;;;;9.48;8.68;;;20.70;99.90;;;;;;2089306;28;20021;-69
2021/06/28 00:42:08;;;;;;;9.57;8.40;;;20.60;99.90;;;;;;2088680;28;20669;-69
2021/06/28 00:43:09;;;;;;;9.50;8.70;;;20.60;99.90;;;;;;2089326;28;20032;-69
2021/06/28 00:44:10;;;;;;;9.77;8.82;;;20.60;99.90;;;;;;2089248;28;20067;-69
2021/06/28 00:45:14;;;;;;;9.25;8.43;;;20.70;99.90;;;;;;2089050;28;20029;-69
2021/06/28 00:46:16;;;;;;;9.52;8.63;;;20.60;99.90;;;;;;2089450;28;20535;-69
2021/06/28 00:47:17;;;;;;;9.27;8.38;;;20.70;99.90;;;;;;2089084;28;20029;-69
2021/06/28 00:48:18;;;;;;;9.25;8.43;;;20.70;99.90;;;;;;2089428;28;20025;-69
2021/06/28 00:49:18;;;;;;;8.40;7.70;;;20.70;99.90;;;;;;2089302;28;20534;-69
2021/06/28 00:50:22;;;;;;;8.68;7.97;;;20.70;99.90;;;;;;2089238;28;20464;-69
2021/06/28 00:51:25;;;;;;;10.43;9.18;;;20.70;99.90;;;;;;2089350;28;20052;-69
2021/06/28 00:52:26;;;;;;;9.15;8.27;;;20.60;99.90;;;;;;2088759;28;20071;-69
2021/06/28 00:53:26;;;;;;;7.55;7.05;;;20.70;99.90;;;;;;2089385;28;20079;-69
2021/06/28 00:54:27;;;;;;;9.02;8.25;;;20.60;99.90;;;;;;2089350;28;20025;-69
2021/06/28 00:55:28;;;;;;;9.15;8.35;;;20.60;99.90;;;;;;2089487;28;20017;-69
2021/06/28 00:56:29;;;;;;;6.97;6.43;;;20.60;99.90;;;;;;2089460;28;20025;-69
2021/06/28 00:57:30;;;;;;;8.20;7.45;;;20.60;99.90;;;;;;2096604;28;20033;-69
2021/06/28 00:58:30;;;;;;;9.18;8.27;;;20.60;99.90;;;;;;2096962;28;20025;-69
2021/06/28 00:59:32;;;;;;;8.85;7.93;;;20.60;99.90;;;;;;2089416;28;20051;-69
2021/06/28 01:00:34;;;;;;;9.45;8.55;;;20.60;99.90;;;;;;2089557;28;20020;-69
2021/06/28 01:01:34;;;;;;;9.02;7.60;;;20.60;99.90;;;;;;2088904;28;20104;-69
2021/06/28 01:02:36;;;;;;;8.07;7.28;;;20.60;99.90;;;;;;2097612;28;20037;-69
2021/06/28 01:03:38;;;;;;;8.60;7.70;;;20.60;99.90;;;;;;2097228;28;20051;-69
2021/06/28 01:04:38;;;;;;;7.68;7.07;;;20.60;99.90;;;;;;2097454;28;20364;-69
2021/06/28 01:05:40;;;;;;;7.72;7.13;;;20.60;99.90;;;;;;2097634;28;20024;-69
2021/06/28 01:06:41;;;;;;;8.38;7.78;;;20.60;99.90;;;;;;2097497;28;20025;-69
2021/06/28 01:07:43;;;;;;;9.00;8.10;;;20.60;99.90;;;;;;2097495;28;20029;-69
2021/06/28 01:08:43;;;;;;;8.45;7.65;;;20.60;99.90;;;;;;2097425;28;20016;-69
2021/06/28 01:09:44;;;;;;;8.73;7.85;;;20.60;99.90;;;;;;2097691;28;20066;-69
2021/06/28 01:10:45;;;;;;;9.20;8.30;;;20.50;99.90;;;;;;2097549;28;20107;-69
2021/06/28 01:11:45;;;;;;;10.50;8.95;;;20.60;99.90;;;;;;2096911;28;20021;-69
2021/06/28 01:12:48;;;;;;;8.00;7.30;;;20.50;99.90;;;;;;2097344;28;21039;-69
2021/06/28 01:13:50;;;;;;;8.40;7.47;;;20.50;99.90;;;;;;2094333;28;20054;-69
2021/06/28 01:14:51;;;;;;;7.05;6.05;;;20.50;99.90;;;;;;2090556;28;20090;-69
2021/06/28 01:15:54;;;;;;;8.32;7.53;;;20.50;99.90;;;;;;2095703;28;20413;-69
2021/06/28 01:16:54;;;;;;;9.55;8.63;;;20.50;99.90;;;;;;2090574;28;20288;-69
2021/06/28 01:17:55;;;;;;;8.75;8.05;;;20.50;99.90;;;;;;2089338;28;20086;-69
2021/06/28 01:18:55;;;;;;;8.27;7.47;;;20.40;99.90;;;;;;2089144;28;20064;-69
2021/06/28 01:20:00;;;;;;;7.75;7.15;;;20.50;99.90;;;;;;2089303;28;20036;-69
2021/06/28 01:21:02;;;;;;;8.77;7.32;;;20.40;99.90;;;;;;2096586;28;20053;-69
2021/06/28 01:22:04;;;;;;;6.78;6.28;;;20.40;99.90;;;;;;2096397;28;20481;-69
2021/06/28 01:23:11;;;;;;;7.50;6.93;;;20.40;99.90;;;;;;2089051;28;20064;-69
2021/06/28 01:24:12;;;;;;;8.30;7.05;;;20.40;99.90;;;;;;2089330;28;20025;-69
2021/06/28 01:25:16;;;;;;;7.65;6.85;;;20.40;99.90;;;;;;2088870;28;20071;-69
2021/06/28 01:26:16;;;;;;;8.30;7.55;;;20.40;99.90;;;;;;2088854;28;20036;-69
2021/06/28 01:27:17;;;;;;;8.10;7.30;;;20.40;99.90;;;;;;2089039;28;20096;-69
2021/06/28 01:28:19;;;;;;;7.75;7.15;;;20.40;99.90;;;;;;2088823;28;20064;-69
2021/06/28 01:29:19;;;;;;;9.20;8.25;;;20.40;99.90;;;;;;2089003;28;20021;-69
2021/06/28 01:30:22;;;;;;;8.43;7.57;;;20.40;99.90;;;;;;2089449;28;20028;-69
2021/06/28 01:31:23;;;;;;;9.18;8.27;;;20.30;99.90;;;;;;2088673;28;20096;-69
2021/06/28 01:32:25;;;;;;;8.95;8.25;;;20.40;99.90;;;;;;2088900;28;20063;-69
2021/06/28 01:33:27;;;;;;;10.80;8.65;;;20.40;99.90;;;;;;2089162;28;20098;-69
2021/06/28 01:34:27;;;;;;;14.60;9.88;;;20.30;99.90;;;;;;2089381;28;20033;-69
2021/06/28 01:35:28;;;;;;;10.25;9.23;;;20.30;99.90;;;;;;2089119;28;20042;-69
2021/06/28 01:36:28;;;;;;;10.18;9.27;;;20.30;99.90;;;;;;2088815;28;20018;-69
2021/06/28 01:37:29;;;;;;;10.55;9.25;;;20.30;99.90;;;;;;2089165;28;20029;-69
2021/06/28 01:38:30;;;;;;;9.30;8.40;;;20.30;99.90;;;;;;2089362;28;20528;-69
2021/06/28 01:39:31;;;;;;;8.75;7.90;;;20.30;99.90;;;;;;2088886;28;20055;-69
2021/06/28 01:40:32;;;;;;;9.50;8.70;;;20.20;99.90;;;;;;2089267;28;20033;-69
2021/06/28 01:41:32;;;;;;;8.63;7.82;;;20.30;99.90;;;;;;2088607;28;20021;-69
2021/06/28 01:42:35;;;;;;;8.27;7.57;;;20.30;99.90;;;;;;2089217;28;20022;-69
2021/06/28 01:43:36;;;;;;;10.13;7.95;;;20.20;99.90;;;;;;2089018;28;20358;-69
2021/06/28 01:44:36;;;;;;;8.75;7.85;;;20.30;99.90;;;;;;2089131;28;20028;-69
2021/06/28 01:45:38;;;;;;;11.77;7.78;;;20.20;99.90;;;;;;2089129;28;20024;-69
2021/06/28 01:46:38;;;;;;;8.77;8.02;;;20.20;99.90;;;;;;2089343;28;20025;-69
2021/06/28 01:47:41;;;;;;;8.00;7.20;;;20.20;99.90;;;;;;2088644;28;20035;-69
2021/06/28 01:48:43;;;;;;;7.63;7.00;;;20.20;99.90;;;;;;2089016;28;20028;-69
2021/06/28 01:49:44;;;;;;;9.25;8.35;;;20.20;99.90;;;;;;2089152;28;20009;-69
2021/06/28 01:50:45;;;;;;;8.93;8.05;;;20.20;99.90;;;;;;2089141;28;20464;-69
2021/06/28 01:51:46;;;;;;;9.07;8.38;;;20.10;99.90;;;;;;2088485;28;20016;-69
2021/06/28 01:52:47;;;;;;;8.48;7.78;;;20.10;99.90;;;;;;2089217;28;20021;-69
2021/06/28 01:53:48;;;;;;;8.77;7.97;;;20.10;99.90;;;;;;2089230;28;20120;-69
2021/06/28 01:54:48;;;;;;;9.00;8.07;;;20.10;99.90;;;;;;2089174;28;20574;-69
2021/06/28 01:55:49;;;;;;;8.95;8.15;;;20.10;99.90;;;;;;2088826;28;20028;-69
2021/06/28 01:56:50;;;;;;;8.18;7.53;;;20.10;99.90;;;;;;2089026;28;20025;-69
2021/06/28 01:57:57;;;;;;;8.45;7.75;;;20.10;99.90;;;;;;2089016;28;20033;-69
2021/06/28 01:58:58;;;;;;;10.02;9.13;;;20.10;99.90;;;;;;2089050;28;20483;-69
2021/06/28 01:59:59;;;;;;;9.68;8.73;;;20.00;99.90;;;;;;2088986;28;20432;-69
2021/06/28 02:01:00;;;;;;;9.73;8.82;;;20.00;99.90;;;;;;2089250;28;20146;-69
2021/06/28 02:02:02;;;;;;;9.80;8.50;;;20.00;99.90;;;;;;2089130;28;20087;-69
2021/06/28 02:03:09;;;;;;;8.55;7.85;;;20.00;99.90;;;;;;2090568;28;20476;-69
2021/06/28 02:04:17;;;;;;;8.43;7.68;;;20.00;99.90;;;;;;2090681;28;20037;-69
2021/06/28 02:05:17;;;;;;;9.05;8.20;;;20.00;99.90;;;;;;2090573;28;20385;-69
2021/06/28 02:06:18;;;;;;;9.77;8.88;;;20.00;99.90;;;;;;2090811;28;20033;-69
2021/06/28 02:07:18;;;;;;;8.68;7.97;;;19.90;99.90;;;;;;2090511;28;20037;-69
2021/06/28 02:08:21;;;;;;;9.10;8.30;;;20.00;99.90;;;;;;2090260;28;20143;-69
2021/06/28 02:09:22;;;;;;;11.65;8.38;;;20.00;99.90;;;;;;2090874;28;20025;-69
2021/06/28 02:10:22;;;;;;;10.55;8.88;;;20.00;99.90;;;;;;2090641;28;20475;-69
2021/06/28 02:11:23;;;;;;;7.75;7.10;;;20.00;99.90;;;;;;2090664;28;20056;-69
2021/06/28 02:12:25;;;;;;;9.23;7.80;;;20.00;99.90;;;;;;2090287;28;20518;-69
2021/06/28 02:13:29;;;;;;;8.75;8.00;;;20.00;99.90;;;;;;2090502;28;20017;-69
2021/06/28 02:14:30;;;;;;;10.18;9.18;;;19.90;99.90;;;;;;2090628;28;20079;-69
2021/06/28 02:15:31;;;;;;;9.52;8.73;;;19.90;99.90;;;;;;2090613;28;20380;-69
2021/06/28 02:16:32;;;;;;;9.15;8.38;;;19.90;99.90;;;;;;2090534;28;20379;-69
2021/06/28 02:17:33;;;;;;;9.05;8.32;;;19.90;99.90;;;;;;2090753;28;20021;-69
2021/06/28 02:18:33;;;;;;;9.38;7.80;;;19.90;99.90;;;;;;2097773;28;20124;-69
2021/06/28 02:19:34;;;;;;;8.43;7.72;;;19.90;99.90;;;;;;2098343;28;20031;-69
2021/06/28 02:20:35;;;;;;;9.35;8.55;;;19.90;99.90;;;;;;2090430;28;20036;-69
2021/06/28 02:21:38;;;;;;;8.80;7.93;;;19.90;99.90;;;;;;2090143;28;20036;-69
2021/06/28 02:22:40;;;;;;;9.52;7.78;;;19.90;99.90;;;;;;2090413;28;20041;-69
2021/06/28 02:23:41;;;;;;;7.80;7.20;;;19.80;99.90;;;;;;2098204;28;20031;-69
2021/06/28 02:24:42;;;;;;;9.05;8.23;;;19.80;99.90;;;;;;2097922;28;20071;-69
2021/06/28 02:25:42;;;;;;;9.80;8.80;;;19.90;99.90;;;;;;2090795;28;20109;-69
2021/06/28 02:26:44;;;;;;;9.00;8.10;;;19.80;99.90;;;;;;2090415;28;20496;-69
2021/06/28 02:27:45;;;;;;;9.13;8.32;;;19.80;99.90;;;;;;2090238;28;20039;-69
2021/06/28 02:28:48;;;;;;;8.32;7.03;;;19.80;99.90;;;;;;2090731;28;20013;-69
2021/06/28 02:29:49;;;;;;;10.00;8.98;;;19.80;99.90;;;;;;2090258;28;20433;-69
2021/06/28 02:30:49;;;;;;;9.25;8.35;;;19.80;99.90;;;;;;2090595;28;20021;-69
2021/06/28 02:31:50;;;;;;;8.90;8.05;;;19.80;99.90;;;;;;2089921;28;20071;-69
2021/06/28 02:32:50;;;;;;;10.73;9.73;;;19.80;99.90;;;;;;2090584;28;20024;-69
2021/06/28 02:33:52;;;;;;;10.73;9.70;;;19.80;99.90;;;;;;2090399;28;20025;-69
2021/06/28 02:34:52;;;;;;;15.48;10.90;;;19.80;99.90;;;;;;2090487;28;20017;-69
2021/06/28 02:35:53;;;;;;;12.75;10.85;;;19.80;99.90;;;;;;2090235;28;20017;-69
2021/06/28 02:36:55;;;;;;;11.65;10.63;;;19.70;99.90;;;;;;2090677;28;20029;-69
2021/06/28 02:37:55;;;;;;;13.10;11.57;;;19.70;99.90;;;;;;2090345;28;20108;-69
2021/06/28 02:39:00;;;;;;;10.38;9.57;;;19.80;99.90;;;;;;2090487;28;20029;-69
2021/06/28 02:40:01;;;;;;;13.00;10.55;;;19.70;99.90;;;;;;2090163;28;20104;-69
2021/06/28 02:41:03;;;;;;;11.27;10.18;;;19.70;99.90;;;;;;2090401;28;20476;-69
2021/06/28 02:42:04;;;;;;;10.82;9.70;;;19.70;99.90;;;;;;2089727;28;20468;-69
2021/06/28 02:43:04;;;;;;;10.90;9.82;;;19.70;99.90;;;;;;2090401;28;20424;-69
2021/06/28 02:44:05;;;;;;;11.18;9.07;;;19.70;99.90;;;;;;2090232;28;20033;-69
2021/06/28 02:45:08;;;;;;;9.70;8.32;;;19.70;99.90;;;;;;2090320;28;20578;-69
2021/06/28 02:46:11;;;;;;;8.88;8.18;;;19.70;99.90;;;;;;2090069;28;20033;-69
2021/06/28 02:47:12;;;;;;;12.70;11.32;;;19.70;99.90;;;;;;2090096;28;20041;-69
2021/06/28 02:48:13;;;;;;;10.57;9.63;;;19.70;99.90;;;;;;2090475;28;20029;-69
2021/06/28 02:49:13;;;;;;;11.90;10.75;;;19.70;99.90;;;;;;2090267;28;20096;-69
2021/06/28 02:50:14;;;;;;;9.23;8.05;;;19.60;99.90;;;;;;2090281;28;20035;-69
2021/06/28 02:51:16;;;;;;;8.65;7.95;;;19.70;99.90;;;;;;2090433;28;20025;-69
2021/06/28 02:52:17;;;;;;;9.52;8.73;;;19.70;99.90;;;;;;2089744;28;20028;-69
2021/06/28 02:53:18;;;;;;;9.63;8.77;;;19.60;99.90;;;;;;2090542;28;20029;-69
2021/06/28 02:54:19;;;;;;;9.27;8.48;;;19.60;99.90;;;;;;2090172;28;20491;-69
2021/06/28 02:55:19;;;;;;;8.77;7.88;;;19.60;99.90;;;;;;2089995;28;20049;-69
2021/06/28 02:56:20;;;;;;;9.55;8.80;;;19.60;99.90;;;;;;2090327;28;20053;-69
2021/06/28 02:57:21;;;;;;;9.57;8.27;;;19.60;99.90;;;;;;2090237;28;20025;-69
2021/06/28 02:58:21;;;;;;;8.43;7.72;;;19.60;99.90;;;;;;2090254;28;20063;-69
2021/06/28 02:59:22;;;;;;;9.63;8.25;;;19.60;99.90;;;;;;2090367;28;20052;-69
2021/06/28 03:00:22;;;;;;;9.32;8.40;;;19.60;99.90;;;;;;2089942;28;20029;-69
2021/06/28 03:01:25;;;;;;;9.50;8.25;;;19.60;99.90;;;;;;2097561;28;20028;-69
2021/06/28 03:02:26;;;;;;;9.73;7.18;;;19.60;99.90;;;;;;2089078;28;20032;-69
2021/06/28 03:03:27;;;;;;;9.43;8.55;;;19.60;99.90;;;;;;2089637;28;20033;-69
2021/06/28 03:04:27;;;;;;;11.10;9.35;;;19.60;99.90;;;;;;2090187;28;20033;-69
2021/06/28 03:05:28;;;;;;;10.20;9.30;;;19.60;99.90;;;;;;2090202;28;20025;-69
2021/06/28 03:06:29;;;;;;;10.68;9.77;;;19.60;99.90;;;;;;2089966;28;20469;-69
2021/06/28 03:07:29;;;;;;;9.13;8.23;;;19.50;99.90;;;;;;2090313;28;20032;-69
2021/06/28 03:08:30;;;;;;;9.90;8.93;;;19.50;99.90;;;;;;2089931;28;20027;-69
2021/06/28 03:09:30;;;;;;;9.77;8.80;;;19.50;99.90;;;;;;2090049;28;20567;-69
2021/06/28 03:10:32;;;;;;;10.23;9.30;;;19.50;99.90;;;;;;2090282;28;20032;-69
2021/06/28 03:11:32;;;;;;;10.10;9.20;;;19.50;99.90;;;;;;2089697;28;20077;-69
2021/06/28 03:12:33;;;;;;;8.48;7.78;;;19.50;99.90;;;;;;2090226;28;20468;-69
2021/06/28 03:13:36;;;;;;;10.55;8.13;;;19.50;99.90;;;;;;2090118;28;20063;-69
2021/06/28 03:14:36;;;;;;;9.30;8.40;;;19.50;99.90;;;;;;2090098;28;20124;-69
2021/06/28 03:15:37;;;;;;;8.70;7.90;;;19.50;99.90;;;;;;2094365;28;20046;-69
2021/06/28 03:16:38;;;;;;;11.32;7.97;;;19.50;99.90;;;;;;2093815;28;20364;-69
2021/06/28 03:17:39;;;;;;;8.65;7.78;;;19.50;99.90;;;;;;2094539;28;20025;-69
2021/06/28 03:18:40;;;;;;;8.18;7.40;;;19.50;99.90;;;;;;2090812;28;20475;-69
2021/06/28 03:19:41;;;;;;;9.52;8.70;;;19.50;99.90;;;;;;2090027;28;20098;-69
2021/06/28 03:20:41;;;;;;;9.93;8.43;;;19.50;99.90;;;;;;2090316;28;20032;-69
2021/06/28 03:21:42;;;;;;;8.68;7.97;;;19.50;99.90;;;;;;2089277;28;20121;-69
2021/06/28 03:22:45;;;;;;;9.40;8.27;;;19.50;99.90;;;;;;2090088;28;20404;-69
2021/06/28 03:23:46;;;;;;;9.82;9.02;;;19.40;99.90;;;;;;2089999;28;20036;-69
2021/06/28 03:24:46;;;;;;;8.90;7.95;;;19.40;99.90;;;;;;2089800;28;20033;-69
2021/06/28 03:25:47;;;;;;;9.40;8.35;;;19.40;99.90;;;;;;2095176;28;20090;-69
2021/06/28 03:26:47;;;;;;;9.05;8.15;;;19.40;99.90;;;;;;2096323;28;20044;-69
2021/06/28 03:27:48;;;;;;;9.52;8.70;;;19.40;99.90;;;;;;2092107;28;20071;-69
2021/06/28 03:28:48;;;;;;;9.68;8.77;;;19.40;99.90;;;;;;2090177;28;20017;-69
2021/06/28 03:29:49;;;;;;;9.13;8.23;;;19.40;99.90;;;;;;2090119;28;20570;-69
2021/06/28 03:30:50;;;;;;;9.10;8.10;;;19.40;99.90;;;;;;2090055;28;20028;-69
2021/06/28 03:31:50;;;;;;;8.65;7.88;;;19.40;99.90;;;;;;2089407;28;20029;-69
2021/06/28 03:32:51;;;;;;;9.48;8.60;;;19.40;99.90;;;;;;2089994;28;20025;-69
2021/06/28 03:33:51;;;;;;;7.00;6.30;;;19.40;99.90;;;;;;2097354;28;20050;-69
2021/06/28 03:34:52;;;;;;;7.90;7.03;;;19.40;99.90;;;;;;2097655;28;20088;-69
2021/06/28 03:35:53;;;;;;;7.65;6.90;;;19.40;99.90;;;;;;2089708;28;20020;-69
2021/06/28 03:36:54;;;;;;;7.68;7.05;;;19.30;99.90;;;;;;2090213;28;20013;-69
2021/06/28 03:37:54;;;;;;;9.15;7.85;;;19.30;99.90;;;;;;2089854;28;20037;-69
2021/06/28 03:38:55;;;;;;;9.45;8.02;;;19.30;99.90;;;;;;2089971;28;20027;-69
2021/06/28 03:39:55;;;;;;;8.10;7.30;;;19.30;99.90;;;;;;2090124;28;20060;-69
2021/06/28 03:40:56;;;;;;;8.95;8.23;;;19.30;99.90;;;;;;2090084;28;20033;-69
2021/06/28 03:41:57;;;;;;;9.07;8.15;;;19.30;99.90;;;;;;2089294;28;20021;-69
2021/06/28 03:43:03;;;;;;;9.68;8.65;;;19.30;99.90;;;;;;2089819;28;20025;-69
2021/06/28 03:44:04;;;;;;;11.15;8.55;;;19.30;99.90;;;;;;2089865;28;20021;-69
2021/06/28 03:45:08;;;;;;;11.35;9.40;;;19.30;99.90;;;;;;2090100;28;20033;-69
2021/06/28 03:46:09;;;;;;;12.70;8.98;;;19.30;99.90;;;;;;2089565;28;20393;-69
2021/06/28 03:47:09;;;;;;;9.52;8.63;;;19.30;99.90;;;;;;2089873;28;20047;-69
2021/06/28 03:48:10;;;;;;;8.27;7.47;;;19.30;99.90;;;;;;2089726;28;20035;-69
2021/06/28 03:49:11;;;;;;;9.43;7.97;;;19.30;99.90;;;;;;2090096;28;20025;-69
2021/06/28 03:50:13;;;;;;;7.28;6.68;;;19.30;99.90;;;;;;2089546;28;20017;-69
2021/06/28 03:51:14;;;;;;;8.32;7.53;;;19.30;99.90;;;;;;2089916;28;20025;-69
2021/06/28 03:52:14;;;;;;;8.85;8.05;;;19.30;99.90;;;;;;2089301;28;20069;-69
2021/06/28 03:53:15;;;;;;;8.82;7.90;;;19.30;99.90;;;;;;2090125;28;20091;-69
2021/06/28 03:54:15;;;;;;;8.75;7.95;;;19.30;99.90;;;;;;2089763;28;20025;-69
2021/06/28 03:55:16;;;;;;;9.52;8.63;;;19.30;99.90;;;;;;2089770;28;20017;-69
2021/06/28 03:56:17;;;;;;;9.10;8.30;;;19.30;99.90;;;;;;2081694;28;20026;-69
2021/06/28 03:57:18;;;;;;;9.23;8.40;;;19.30;99.90;;;;;;2086928;28;20108;-69
2021/06/28 03:58:18;;;;;;;9.07;8.27;;;19.30;99.90;;;;;;2089802;28;20025;-69
2021/06/28 03:59:19;;;;;;;9.10;7.30;;;19.30;99.90;;;;;;2089722;28;20431;-69
2021/06/28 04:00:23;;;;;;;10.60;7.57;;;19.30;99.90;;;;;;2097229;28;20616;-69
2021/06/28 04:01:23;;;;;;;10.75;8.25;;;19.30;99.90;;;;;;2096517;28;20048;-69
2021/06/28 04:02:24;;;;;;;9.48;8.57;;;19.30;99.90;;;;;;2089489;28;20021;-69
2021/06/28 04:03:27;;;;;;;9.38;7.70;;;19.30;99.90;;;;;;2089647;28;20021;-69
2021/06/28 04:04:28;;;;;;;12.07;8.18;;;19.30;99.90;;;;;;2090055;28;20105;-69
2021/06/28 04:05:28;;;;;;;9.70;8.93;;;19.30;99.90;;;;;;2089594;28;20017;-69
2021/06/28 04:06:30;;;;;;;9.07;8.23;;;19.30;99.90;;;;;;2089782;28;20036;-69
2021/06/28 04:07:30;;;;;;;8.43;6.97;;;19.30;99.90;;;;;;2089290;28;20459;-69
2021/06/28 04:08:36;;;;;;;9.75;6.97;;;19.40;99.90;;;;;;2089956;28;20025;-69
2021/06/28 04:09:36;;;;;;;8.45;7.68;;;19.40;99.90;;;;;;2089494;28;20052;-69
2021/06/28 04:10:37;;;;;;;7.95;7.18;;;19.40;99.90;;;;;;2089823;28;20021;-69
2021/06/28 04:11:37;;;;;;;9.10;8.05;;;19.40;99.90;;;;;;2089062;28;20375;-69
2021/06/28 04:12:38;;;;;;;7.28;6.68;;;19.50;99.90;;;;;;2089773;28;20017;-69
2021/06/28 04:13:39;;;;;;;9.38;8.55;;;19.50;99.90;;;;;;2089561;28;20403;-69
2021/06/28 04:14:41;;;;;;;8.23;7.35;;;19.50;99.90;;;;;;2089450;28;20035;-69
2021/06/28 04:15:42;;;;;;;9.02;8.15;;;19.50;99.90;;;;;;2097228;28;20395;-69
2021/06/28 04:16:43;;;;;;;8.23;7.40;;;19.60;99.90;;;;;;2097295;28;20044;-69
2021/06/28 04:17:48;;;;;;;8.65;6.95;;;19.80;99.90;;;;;;2089153;28;20407;-69
2021/06/28 04:18:49;;;;;;;8.38;7.68;;;20.00;99.90;;;;;;2089689;28;20021;-69
2021/06/28 04:19:49;;;;;;;10.45;8.10;;;20.10;99.90;;;;;;2089463;28;20032;-69
2021/06/28 04:20:50;;;;;;;9.73;8.75;;;20.30;99.90;;;;;;2089854;28;20029;-69
2021/06/28 04:21:50;;;;;;;10.73;9.63;;;20.60;99.90;;;;;;2088804;28;20036;-69
2021/06/28 04:22:51;;;;;;;11.25;10.02;;;20.80;99.90;;;;;;2089495;28;20028;-69
2021/06/28 04:23:52;;;;;;;9.98;9.05;;;21.00;99.90;;;;;;2089569;28;20078;-69
2021/06/28 04:24:52;;;;;;;9.10;8.25;;;21.10;99.90;;;;;;2089011;28;20447;-69
2021/06/28 04:25:53;;;;;;;10.07;8.20;;;21.30;99.90;;;;;;2089382;28;20021;-69
2021/06/28 04:26:54;;;;;;;9.50;8.60;;;21.40;99.90;;;;;;2089813;28;20032;-69
2021/06/28 04:27:54;;;;;;;8.88;8.07;;;21.40;99.90;;;;;;2089400;28;20036;-69
2021/06/28 04:28:55;;;;;;;10.35;8.18;;;21.50;99.90;;;;;;2089455;28;20476;-69
2021/06/28 04:29:55;;;;;;;10.07;8.45;;;21.50;99.90;;;;;;2089351;28;20138;-69
2021/06/28 04:30:57;;;;;;;9.43;8.63;;;21.50;99.90;;;;;;2089714;28;20345;-69
2021/06/28 04:31:58;;;;;;;9.52;8.75;;;21.50;99.90;;;;;;2088523;28;20092;-69
2021/06/28 04:32:59;;;;;;;10.23;8.40;;;21.50;99.90;;;;;;2089530;28;20025;-69
2021/06/28 04:33:59;;;;;;;9.93;9.07;;;21.40;99.90;;;;;;2089287;28;20017;-69
2021/06/28 04:35:00;;;;;;;11.35;10.00;;;21.40;99.90;;;;;;2089852;28;20368;-69
2021/06/28 04:36:00;;;;;;;10.55;9.45;;;21.40;99.90;;;;;;2089206;28;20017;-69
2021/06/28 04:37:01;;;;;;;9.80;9.00;;;21.40;99.90;;;;;;2088962;28;20048;-69
2021/06/28 04:38:02;;;;;;;9.98;9.02;;;21.40;99.90;;;;;;2088639;28;20025;-69
2021/06/28 04:39:03;;;;;;;9.88;8.85;;;21.40;99.90;;;;;;2082900;28;20053;-69
2021/06/28 04:40:05;;;;;;;8.18;7.38;;;21.40;99.90;;;;;;2089148;28;20067;-69
2021/06/28 04:41:05;;;;;;;9.13;8.23;;;21.40;99.90;;;;;;2089392;28;20128;-69
2021/06/28 04:42:07;;;;;;;9.80;8.45;;;21.40;99.90;;;;;;2088160;28;20032;-69
2021/06/28 04:43:07;;;;;;;10.32;8.98;;;21.50;99.90;;;;;;2088897;28;20053;-69
2021/06/28 04:44:08;;;;;;;9.50;8.20;;;21.50;99.90;;;;;;2089431;28;20036;-69
2021/06/28 04:45:10;;;;;;;8.38;7.63;;;21.50;99.90;;;;;;2089046;28;20055;-69
2021/06/28 04:46:11;;;;;;;9.73;8.70;;;21.60;99.90;;;;;;2089424;28;20068;-69
2021/06/28 04:47:11;;;;;;;9.45;8.65;;;21.70;99.90;;;;;;2089213;28;20025;-69
2021/06/28 04:48:12;;;;;;;8.85;8.02;;;21.70;99.90;;;;;;2089454;28;20025;-69
2021/06/28 04:49:13;;;;;;;10.00;8.93;;;21.80;99.90;;;;;;2089316;28;20472;-69
2021/06/28 04:50:15;;;;;;;8.63;7.72;;;21.90;99.90;;;;;;2089406;28;20349;-69
2021/06/28 04:51:16;;;;;;;9.15;8.15;;;21.90;99.90;;;;;;2089354;28;20021;-69
2021/06/28 04:52:16;;;;;;;8.25;7.55;;;22.00;99.90;;;;;;2088746;28;20025;-69
2021/06/28 04:53:17;;;;;;;8.43;7.57;;;22.10;99.90;;;;;;2089299;28;20021;-69
2021/06/28 04:54:17;;;;;;;9.02;8.23;;;22.10;99.90;;;;;;2089479;28;20036;-69
2021/06/28 04:55:18;;;;;;;8.98;8.07;;;22.20;99.90;;;;;;2089099;28;20025;-69
2021/06/28 04:56:19;;;;;;;9.75;7.65;;;22.30;99.90;;;;;;2089461;28;20021;-70
2021/06/28 04:57:19;;;;;;;8.52;7.80;;;22.30;99.90;;;;;;2089372;28;20017;-69
2021/06/28 04:58:20;;;;;;;9.45;8.52;;;22.40;99.90;;;;;;2089463;28;20060;-69
2021/06/28 04:59:20;;;;;;;7.10;6.50;;;22.50;99.90;;;;;;2089111;28;20123;-69
2021/06/28 05:00:24;;;;;;;8.55;7.85;;;22.50;99.90;;;;;;2096887;28;20108;-69
2021/06/28 05:01:24;;;;;;;9.13;8.32;;;22.60;99.90;;;;;;2096409;28;20031;-69
2021/06/28 05:02:25;;;;;;;9.43;8.00;;;22.60;99.90;;;;;;2088376;28;20096;-69
2021/06/28 05:03:25;;;;;;;8.73;7.93;;;22.70;99.90;;;;;;2088330;28;20035;-69
2021/06/28 05:04:26;;;;;;;9.88;8.98;;;22.70;99.90;;;;;;2096798;28;20025;-69
2021/06/28 05:05:27;;;;;;;8.82;8.10;;;22.80;99.90;;;;;;2096959;28;20419;-69
2021/06/28 05:06:27;;;;;;;8.30;7.60;;;22.80;99.90;;;;;;2089353;28;20025;-69
2021/06/28 05:07:28;;;;;;;8.13;7.32;;;22.90;99.90;;;;;;2089029;28;20589;-69
2021/06/28 05:08:28;;;;;;;12.57;8.27;;;23.00;99.90;;;;;;2089331;28;20091;-69
2021/06/28 05:09:29;;;;;;;9.30;8.43;;;23.00;99.90;;;;;;2089273;28;20025;-69
2021/06/28 05:10:29;;;;;;;9.73;8.20;;;23.10;99.90;;;;;;2089358;28;20415;-69
2021/06/28 05:11:30;;;;;;;8.70;7.90;;;23.10;99.90;;;;;;2088563;28;20025;-69
2021/06/28 05:12:30;;;;;;;14.13;9.15;;;23.20;99.90;;;;;;2089484;28;20021;-69
2021/06/28 05:13:31;;;;;;;9.50;8.57;;;23.30;99.90;;;;;;2088620;28;20025;-69
2021/06/28 05:14:31;;;;;;;11.27;7.97;;;23.40;99.90;;;;;;2089478;28;20025;-69
2021/06/28 05:15:32;;;;;;;13.23;9.10;;;23.40;99.90;;;;;;2088994;28;20017;-69
2021/06/28 05:16:33;;;;;;;8.70;7.85;;;23.50;99.90;;;;;;2089483;28;20056;-69
2021/06/28 05:17:33;;;;;;;10.50;9.55;;;23.50;99.90;;;;;;2088493;28;20396;-69